Ust'- Maja, Russia
Current Conditions -  °F | °C
As of 4:00 AM on Monday 26 Jan 2015 (Local Time) from UEEE Reporting Station
Haze Haze  
Wind Chill: -38°   Ceiling: 20000
Heat Index: -38°   Visibility: 3mi
Dew Point: -45°   Wind: 0mph
Humidity: 67%   Direction: NA
Pressure: 30.03"   Gusts: NA
Location:  60.42°N, 134.53°E
Report Text: UEEE 251800Z 00000MPS 5000 BR OVC200 M39/M43 Q1017 NOSIG RMKQFE754 23490150
Loading
Personal Weather Stations






























Interactive Weather Map New forecast layout! Learn more

10-Day Weather Forecast

Advertisements
Track Severe Weather on mobile